Terminal Aerodrome Forecast
Issued by NWS Duluth, MN

Home | Current Version | Previous Version | Text Only | Print | Product List | Glossary On
Versions: 1 2 3 4 5 6 7 8 9 10 11 12 13 14 15 16 17 18 19 20 21 22 23 24 25 26 27 28 29 30 31 32
000
FTUS43 KDLH 281633 AAE
TAFDLH
TAF AMD
KDLH 281633Z 2817/0112 08010KT 3SM -SN BR OVC006
     FM281800 04010KT 4SM -SN BR OVC008
     FM282300 04012KT 6SM -SN OVC010
     FM010400 05010KT P6SM BKN015
     FM010900 04010KT P6SM SCT015 BKN120=

USA.gov is the U.S. government's official web portal to all federal, state and local government web resources and services.